sensor_id;sensor_type;location;lat;lon;timestamp;P1;durP1;ratioP1;P2;durP2;ratioP2
29302;SDS011;60019;45.556;12.004;2024-01-15T00:01:45;70.75;;;44.67;;
29302;SDS011;60019;45.556;12.004;2024-01-15T00:07:46;68.72;;;42.33;;
29302;SDS011;60019;45.556;12.004;2024-01-15T00:13:48;65.40;;;41.65;;
29302;SDS011;60019;45.556;12.004;2024-01-15T00:19:50;67.30;;;41.95;;
29302;SDS011;60019;45.556;12.004;2024-01-15T00:25:52;73.00;;;43.17;;
29302;SDS011;60019;45.556;12.004;2024-01-15T00:31:53;66.75;;;41.70;;
29302;SDS011;60019;45.556;12.004;2024-01-15T00:37:55;64.88;;;41.55;;
29302;SDS011;60019;45.556;12.004;2024-01-15T00:43:57;66.63;;;42.45;;
29302;SDS011;60019;45.556;12.004;2024-01-15T00:49:59;64.97;;;40.38;;
29302;SDS011;60019;45.556;12.004;2024-01-15T00:56:00;68.55;;;41.30;;
29302;SDS011;60019;45.556;12.004;2024-01-15T01:02:03;62.63;;;40.17;;
29302;SDS011;60019;45.556;12.004;2024-01-15T01:08:05;61.00;;;41.35;;
29302;SDS011;60019;45.556;12.004;2024-01-15T01:14:07;68.93;;;41.80;;
29302;SDS011;60019;45.556;12.004;2024-01-15T01:20:09;64.57;;;41.25;;
29302;SDS011;60019;45.556;12.004;2024-01-15T01:26:14;59.75;;;38.30;;
29302;SDS011;60019;45.556;12.004;2024-01-15T01:32:16;60.85;;;39.10;;
29302;SDS011;60019;45.556;12.004;2024-01-15T01:38:18;56.50;;;38.97;;
29302;SDS011;60019;45.556;12.004;2024-01-15T01:44:20;63.38;;;40.17;;
29302;SDS011;60019;45.556;12.004;2024-01-15T01:50:22;68.22;;;40.80;;
29302;SDS011;60019;45.556;12.004;2024-01-15T01:56:24;62.83;;;39.70;;
29302;SDS011;60019;45.556;12.004;2024-01-15T02:02:26;64.00;;;39.67;;
29302;SDS011;60019;45.556;12.004;2024-01-15T02:08:27;65.57;;;41.20;;
29302;SDS011;60019;45.556;12.004;2024-01-15T02:14:29;60.13;;;40.05;;
29302;SDS011;60019;45.556;12.004;2024-01-15T02:20:31;61.92;;;39.00;;
29302;SDS011;60019;45.556;12.004;2024-01-15T02:26:33;63.90;;;40.38;;
29302;SDS011;60019;45.556;12.004;2024-01-15T02:32:36;60.88;;;39.05;;
29302;SDS011;60019;45.556;12.004;2024-01-15T02:38:38;63.63;;;38.63;;
29302;SDS011;60019;45.556;12.004;2024-01-15T02:44:40;62.03;;;41.40;;
29302;SDS011;60019;45.556;12.004;2024-01-15T02:50:42;57.13;;;38.72;;
29302;SDS011;60019;45.556;12.004;2024-01-15T02:56:43;57.13;;;38.28;;
29302;SDS011;60019;45.556;12.004;2024-01-15T03:02:45;65.97;;;40.22;;
29302;SDS011;60019;45.556;12.004;2024-01-15T03:08:47;61.42;;;39.35;;
29302;SDS011;60019;45.556;12.004;2024-01-15T03:14:49;63.67;;;38.20;;
29302;SDS011;60019;45.556;12.004;2024-01-15T03:20:51;64.18;;;39.75;;
29302;SDS011;60019;45.556;12.004;2024-01-15T03:26:52;65.53;;;40.65;;
29302;SDS011;60019;45.556;12.004;2024-01-15T03:32:54;61.60;;;37.72;;
29302;SDS011;60019;45.556;12.004;2024-01-15T03:38:56;61.22;;;39.88;;
29302;SDS011;60019;45.556;12.004;2024-01-15T03:44:58;60.70;;;38.97;;
29302;SDS011;60019;45.556;12.004;2024-01-15T03:51:00;61.40;;;37.28;;
29302;SDS011;60019;45.556;12.004;2024-01-15T03:57:01;59.97;;;37.80;;
29302;SDS011;60019;45.556;12.004;2024-01-15T04:03:03;61.03;;;39.13;;
29302;SDS011;60019;45.556;12.004;2024-01-15T04:09:05;61.72;;;39.63;;
29302;SDS011;60019;45.556;12.004;2024-01-15T04:15:07;53.67;;;36.38;;
29302;SDS011;60019;45.556;12.004;2024-01-15T04:21:09;58.22;;;37.97;;
29302;SDS011;60019;45.556;12.004;2024-01-15T04:27:11;61.72;;;38.45;;
29302;SDS011;60019;45.556;12.004;2024-01-15T04:33:12;54.28;;;35.47;;
29302;SDS011;60019;45.556;12.004;2024-01-15T04:39:14;55.80;;;36.40;;
29302;SDS011;60019;45.556;12.004;2024-01-15T04:45:16;58.47;;;35.28;;
29302;SDS011;60019;45.556;12.004;2024-01-15T04:51:19;58.72;;;36.08;;
29302;SDS011;60019;45.556;12.004;2024-01-15T04:57:21;63.20;;;36.78;;
29302;SDS011;60019;45.556;12.004;2024-01-15T05:03:23;61.13;;;36.97;;
29302;SDS011;60019;45.556;12.004;2024-01-15T05:09:24;59.20;;;37.90;;
29302;SDS011;60019;45.556;12.004;2024-01-15T05:15:26;57.13;;;36.88;;
29302;SDS011;60019;45.556;12.004;2024-01-15T05:21:28;52.80;;;35.65;;
29302;SDS011;60019;45.556;12.004;2024-01-15T05:27:30;55.17;;;34.72;;
29302;SDS011;60019;45.556;12.004;2024-01-15T05:33:32;54.05;;;33.63;;
29302;SDS011;60019;45.556;12.004;2024-01-15T05:39:34;51.53;;;33.42;;
29302;SDS011;60019;45.556;12.004;2024-01-15T05:45:37;52.65;;;31.75;;
29302;SDS011;60019;45.556;12.004;2024-01-15T05:51:40;51.08;;;33.00;;
29302;SDS011;60019;45.556;12.004;2024-01-15T05:57:42;54.03;;;33.30;;
29302;SDS011;60019;45.556;12.004;2024-01-15T06:03:43;51.22;;;32.53;;
29302;SDS011;60019;45.556;12.004;2024-01-15T06:09:45;54.33;;;33.22;;
29302;SDS011;60019;45.556;12.004;2024-01-15T06:15:47;50.92;;;30.30;;
29302;SDS011;60019;45.556;12.004;2024-01-15T06:21:49;46.60;;;32.03;;
29302;SDS011;60019;45.556;12.004;2024-01-15T06:27:51;44.92;;;30.55;;
29302;SDS011;60019;45.556;12.004;2024-01-15T06:33:52;51.00;;;32.40;;
29302;SDS011;60019;45.556;12.004;2024-01-15T06:39:54;49.65;;;31.63;;
29302;SDS011;60019;45.556;12.004;2024-01-15T06:45:56;56.58;;;32.08;;
29302;SDS011;60019;45.556;12.004;2024-01-15T06:51:58;56.90;;;33.08;;
29302;SDS011;60019;45.556;12.004;2024-01-15T06:58:00;54.97;;;31.50;;
29302;SDS011;60019;45.556;12.004;2024-01-15T07:04:02;57.55;;;34.53;;
29302;SDS011;60019;45.556;12.004;2024-01-15T07:10:04;56.95;;;34.30;;
29302;SDS011;60019;45.556;12.004;2024-01-15T07:16:06;56.00;;;33.85;;
29302;SDS011;60019;45.556;12.004;2024-01-15T07:22:08;61.25;;;33.83;;
29302;SDS011;60019;45.556;12.004;2024-01-15T07:28:10;52.28;;;33.83;;
29302;SDS011;60019;45.556;12.004;2024-01-15T07:34:12;50.17;;;33.40;;
29302;SDS011;60019;45.556;12.004;2024-01-15T07:40:14;59.08;;;36.88;;
29302;SDS011;60019;45.556;12.004;2024-01-15T07:46:16;55.83;;;35.40;;
29302;SDS011;60019;45.556;12.004;2024-01-15T07:52:18;58.15;;;37.15;;
29302;SDS011;60019;45.556;12.004;2024-01-15T07:58:20;62.05;;;37.83;;
29302;SDS011;60019;45.556;12.004;2024-01-15T08:04:22;62.45;;;37.20;;
29302;SDS011;60019;45.556;12.004;2024-01-15T08:10:24;61.95;;;37.50;;
29302;SDS011;60019;45.556;12.004;2024-01-15T08:16:26;61.72;;;37.90;;
29302;SDS011;60019;45.556;12.004;2024-01-15T08:22:28;60.88;;;36.72;;
29302;SDS011;60019;45.556;12.004;2024-01-15T08:28:29;61.70;;;36.55;;
29302;SDS011;60019;45.556;12.004;2024-01-15T08:34:31;59.88;;;36.90;;
29302;SDS011;60019;45.556;12.004;2024-01-15T11:05:11;62.63;;;36.28;;
29302;SDS011;60019;45.556;12.004;2024-01-15T11:11:13;55.45;;;34.67;;
29302;SDS011;60019;45.556;12.004;2024-01-15T11:17:16;50.63;;;33.88;;
